Time;durP1;ratioP1;P1;durP2;ratioP2;P2;SDS_P1;SDS_P2;PMS_P1;PMS_P2;Temp;Humidity;BMP_temperature;BMP_pressure;BME280_temperature;BME280_humidity;BME280_pressure;Samples;Min_cycle;Max_cycle;Signal;HPM_P1;HPM_P2
2023/08/15 00:00:55;;;;;;;6.65;3.90;;;16.80;24.50;;;;;;5003095;28;20040;-77
2023/08/15 00:03:21;;;;;;;4.88;3.55;;;16.80;28.90;;;;;;4989320;28;20042;-78
2023/08/15 00:05:46;;;;;;;3.65;3.10;;;16.80;29.00;;;;;;4983957;28;20043;-78
2023/08/15 00:08:12;;;;;;;5.20;3.40;;;16.70;26.00;;;;;;5005024;28;20607;-77
2023/08/15 00:10:37;;;;;;;7.05;3.25;;;16.70;25.30;;;;;;4981432;28;20038;-77
2023/08/15 00:13:03;;;;;;;5.20;3.53;;;16.60;27.20;;;;;;5002902;28;20038;-77
2023/08/15 00:15:32;;;;;;;7.78;3.70;;;16.50;35.20;;;;;;4989696;28;20043;-78
2023/08/15 00:17:57;;;;;;;4.20;3.78;;;16.50;41.70;;;;;;4977886;28;20391;-77
2023/08/15 00:20:23;;;;;;;5.57;3.63;;;16.50;48.20;;;;;;4999943;28;20040;-77
2023/08/15 00:22:49;;;;;;;5.88;4.35;;;16.40;50.00;;;;;;5000576;28;20105;-77
2023/08/15 00:25:14;;;;;;;7.47;5.18;;;16.40;55.00;;;;;;4986527;28;20130;-77
2023/08/15 00:27:40;;;;;;;10.80;8.80;;;16.40;58.90;;;;;;4979218;28;20054;-78
2023/08/15 00:30:06;;;;;;;9.10;5.60;;;16.40;63.60;;;;;;4992855;28;20047;-77
2023/08/15 00:32:35;;;;;;;8.95;4.95;;;16.40;69.00;;;;;;4981807;28;20097;-77
2023/08/15 00:35:03;;;;;;;4.90;3.42;;;16.40;77.90;;;;;;4997031;28;20074;-77
2023/08/15 00:37:28;;;;;;;7.45;3.60;;;16.30;79.10;;;;;;5002846;28;20493;-77
2023/08/15 00:39:54;;;;;;;5.28;3.58;;;16.30;80.50;;;;;;4989355;28;20065;-78
2023/08/15 00:42:19;;;;;;;5.78;4.10;;;16.30;81.20;;;;;;4987200;28;20046;-78
2023/08/15 00:44:45;;;;;;;6.40;4.00;;;16.30;78.20;;;;;;4988354;28;20030;-77
2023/08/15 00:47:13;;;;;;;6.70;3.90;;;16.20;78.70;;;;;;5004731;28;20042;-77
2023/08/15 00:49:40;;;;;;;5.32;3.85;;;16.20;79.60;;;;;;4979917;28;20051;-77
2023/08/15 00:52:06;;;;;;;6.43;4.03;;;16.10;83.00;;;;;;4999496;28;20038;-77
2023/08/15 00:54:32;;;;;;;7.57;4.05;;;16.10;88.50;;;;;;4988069;28;20046;-77
2023/08/15 00:56:58;;;;;;;5.97;4.20;;;16.10;92.90;;;;;;4988538;28;20489;-78
2023/08/15 00:59:23;;;;;;;6.18;4.25;;;16.10;94.90;;;;;;4984378;28;20386;-77
2023/08/15 01:01:49;;;;;;;9.10;4.50;;;16.20;95.40;;;;;;4987574;28;20675;-77
2023/08/15 01:04:15;;;;;;;9.48;4.82;;;16.20;95.60;;;;;;4998411;28;20523;-77
2023/08/15 01:06:41;;;;;;;6.45;5.00;;;16.20;95.90;;;;;;5003589;28;20042;-77
2023/08/15 01:09:06;;;;;;;8.02;4.95;;;16.20;97.00;;;;;;5004116;28;20080;-77
2023/08/15 01:11:44;;;;;;;7.45;5.32;;;16.20;97.80;;;;;;4980899;28;20043;-77
2023/08/15 01:14:14;;;;;;;6.35;4.57;;;16.20;98.90;;;;;;4985448;28;20042;-77
2023/08/15 01:16:43;;;;;;;8.35;5.00;;;16.20;99.70;;;;;;4987604;28;20042;-77
2023/08/15 01:19:39;;;;;;;9.00;5.57;;;16.30;99.90;;;;;;4997535;28;20043;-77
2023/08/15 01:22:15;;;;;;;8.80;5.15;;;16.30;99.90;;;;;;4983568;28;20688;-77
2023/08/15 01:24:41;;;;;;;8.27;6.03;;;16.30;99.90;;;;;;4989789;28;20128;-77
2023/08/15 01:27:07;;;;;;;9.70;5.30;;;16.40;99.90;;;;;;4992881;28;20068;-78
2023/08/15 01:29:32;;;;;;;8.35;5.55;;;16.30;99.90;;;;;;4992536;28;20527;-76
2023/08/15 01:32:13;;;;;;;12.85;5.70;;;16.30;99.90;;;;;;4987516;28;20108;-77
2023/08/15 01:34:46;;;;;;;6.70;5.07;;;16.30;99.90;;;;;;5005286;28;20051;-77
2023/08/15 01:37:20;;;;;;;7.75;5.70;;;16.30;99.10;;;;;;4976968;28;20481;-77
2023/08/15 01:39:49;;;;;;;9.27;5.82;;;16.30;99.90;;;;;;5002032;28;20030;-77
2023/08/15 01:42:16;;;;;;;7.15;5.28;;;16.20;99.60;;;;;;4982190;28;20084;-77
2023/08/15 01:44:42;;;;;;;8.30;6.10;;;16.20;99.90;;;;;;5000213;28;20061;-77
2023/08/15 01:47:08;;;;;;;9.48;5.90;;;16.30;99.90;;;;;;4987371;28;20077;-77
2023/08/15 01:49:34;;;;;;;10.50;5.95;;;16.30;99.90;;;;;;4977219;28;20418;-76
2023/08/15 01:51:59;;;;;;;9.82;5.68;;;16.20;99.90;;;;;;4989565;28;20077;-77
2023/08/15 01:54:25;;;;;;;20.13;6.80;;;16.20;99.90;;;;;;4990268;28;20038;-77
2023/08/15 01:56:50;;;;;;;10.77;6.22;;;16.20;99.90;;;;;;4985430;28;20049;-77
2023/08/15 01:59:16;;;;;;;10.80;6.13;;;16.10;99.90;;;;;;5005097;28;20601;-78
2023/08/15 02:01:42;;;;;;;10.95;6.03;;;16.20;99.90;;;;;;4986538;28;20117;-77
2023/08/15 02:04:07;;;;;;;8.25;5.75;;;16.20;99.90;;;;;;4990488;28;20038;-77
2023/08/15 02:06:33;;;;;;;9.25;6.32;;;16.20;99.90;;;;;;4992855;28;20425;-77
2023/08/15 02:08:58;;;;;;;7.43;5.22;;;16.20;99.90;;;;;;4996459;28;20113;-77
2023/08/15 02:11:25;;;;;;;7.93;5.55;;;16.20;99.90;;;;;;4972474;28;20412;-77
2023/08/15 02:13:50;;;;;;;9.65;5.22;;;16.10;99.90;;;;;;4990485;28;20077;-77
2023/08/15 02:16:17;;;;;;;11.07;6.82;;;16.20;99.90;;;;;;4995832;28;20050;-77
2023/08/15 02:18:43;;;;;;;8.90;5.95;;;16.30;99.90;;;;;;4975183;28;20061;-78
2023/08/15 02:21:09;;;;;;;8.52;5.45;;;16.30;99.90;;;;;;4976348;28;20040;-77
2023/08/15 02:23:34;;;;;;;8.50;5.28;;;16.30;99.90;;;;;;4987280;28;20177;-78
2023/08/15 02:26:00;;;;;;;8.45;5.90;;;16.30;99.90;;;;;;4974585;28;20486;-78
2023/08/15 02:28:25;;;;;;;10.00;5.07;;;16.20;99.90;;;;;;4994745;28;20042;-77
2023/08/15 02:30:53;;;;;;;10.95;6.07;;;16.20;99.90;;;;;;4983707;28;20512;-77
2023/08/15 02:33:18;;;;;;;12.23;5.90;;;16.20;99.90;;;;;;4974823;28;20047;-77
2023/08/15 02:35:44;;;;;;;13.55;5.85;;;16.10;99.90;;;;;;4996854;28;20124;-77
2023/08/15 02:38:10;;;;;;;11.18;5.43;;;16.10;99.90;;;;;;4977193;28;20573;-78
2023/08/15 02:40:35;;;;;;;8.73;5.22;;;16.10;99.90;;;;;;4978174;28;20039;-78
2023/08/15 02:43:01;;;;;;;9.82;5.47;;;16.10;99.90;;;;;;5002679;28;20126;-77
2023/08/15 02:45:26;;;;;;;8.95;5.55;;;16.10;99.90;;;;;;4968581;28;20042;-77
2023/08/15 02:47:52;;;;;;;9.85;6.32;;;16.10;99.90;;;;;;4984318;28;20404;-77
2023/08/15 02:50:18;;;;;;;8.63;5.45;;;16.20;99.90;;;;;;4974961;28;20050;-77
2023/08/15 02:52:43;;;;;;;11.02;6.18;;;16.20;99.90;;;;;;4999281;28;20044;-77
2023/08/15 02:55:09;;;;;;;11.57;7.10;;;16.20;99.90;;;;;;4992386;28;20128;-76
2023/08/15 02:57:35;;;;;;;11.80;7.97;;;16.30;99.90;;;;;;4982652;28;20483;-76
2023/08/15 03:00:00;;;;;;;11.63;7.15;;;16.30;99.90;;;;;;4987680;28;20042;-77
2023/08/15 03:02:27;;;;;;;15.57;8.57;;;16.40;99.90;;;;;;4981306;28;20047;-77
2023/08/15 03:04:52;;;;;;;14.25;7.65;;;16.50;99.90;;;;;;5005512;28;20043;-77
2023/08/15 03:07:18;;;;;;;11.02;6.97;;;16.50;99.90;;;;;;4986271;28;20037;-77
2023/08/15 03:09:43;;;;;;;9.95;7.20;;;16.50;99.90;;;;;;4986138;28;20103;-77
2023/08/15 03:12:09;;;;;;;11.32;8.57;;;16.60;99.90;;;;;;4985316;28;20597;-76
2023/08/15 03:14:35;;;;;;;18.17;8.18;;;16.60;99.90;;;;;;4973748;28;20050;-77
2023/08/15 03:17:02;;;;;;;15.18;8.50;;;16.70;99.90;;;;;;4984273;28;20038;-77
2023/08/15 03:19:28;;;;;;;11.88;8.70;;;16.80;99.90;;;;;;4994471;28;20046;-77
2023/08/15 03:21:54;;;;;;;11.30;7.75;;;16.90;99.90;;;;;;4989268;28;20041;-76
2023/08/15 03:24:19;;;;;;;12.27;8.25;;;16.90;99.90;;;;;;4989923;28;20046;-77
2023/08/15 03:26:45;;;;;;;13.82;7.75;;;16.90;99.90;;;;;;4968713;28;20045;-77
2023/08/15 03:29:11;;;;;;;14.70;8.90;;;16.90;99.90;;;;;;4979768;28;20537;-77
2023/08/15 03:31:36;;;;;;;13.10;8.13;;;16.90;99.90;;;;;;4967536;28;20042;-78
2023/08/15 03:34:02;;;;;;;13.88;8.70;;;17.00;99.90;;;;;;4977641;28;20038;-77
2023/08/15 03:36:28;;;;;;;12.05;8.13;;;17.10;99.90;;;;;;4997749;28;20135;-77
2023/08/15 03:38:53;;;;;;;15.20;9.90;;;17.10;99.90;;;;;;4983663;28;20440;-77
2023/08/15 03:41:19;;;;;;;17.90;10.63;;;17.20;99.90;;;;;;4985363;28;20042;-77
2023/08/15 03:43:44;;;;;;;18.90;11.52;;;17.20;99.90;;;;;;4995457;28;20069;-77
2023/08/15 03:46:10;;;;;;;18.33;11.85;;;17.50;99.90;;;;;;4999293;28;20038;-77
2023/08/15 03:48:36;;;;;;;19.75;11.90;;;17.60;99.90;;;;;;4985589;28;20096;-78
2023/08/15 03:51:02;;;;;;;17.92;11.57;;;17.80;99.90;;;;;;4979425;28;20074;-77
2023/08/15 03:53:28;;;;;;;16.92;11.40;;;17.90;99.90;;;;;;4965298;28;20145;-78
2023/08/15 03:55:54;;;;;;;20.52;11.98;;;18.00;99.90;;;;;;4978227;28;20121;-77
2023/08/15 03:58:20;;;;;;;17.42;11.45;;;18.00;99.90;;;;;;4982640;28;21022;-78
2023/08/15 04:00:47;;;;;;;19.83;11.85;;;18.00;99.90;;;;;;4981629;28;20040;-78
2023/08/15 04:03:13;;;;;;;19.85;12.18;;;18.00;99.90;;;;;;4982673;28;20042;-77
2023/08/15 04:05:39;;;;;;;13.80;10.45;;;18.00;99.90;;;;;;4991354;28;20049;-77
2023/08/15 04:08:05;;;;;;;15.93;11.45;;;18.00;99.90;;;;;;4986102;28;20097;-77
2023/08/15 04:10:30;;;;;;;16.27;10.98;;;18.00;99.90;;;;;;4986306;28;20527;-77
2023/08/15 04:12:56;;;;;;;18.73;12.15;;;18.00;99.90;;;;;;4984137;28;20050;-76
2023/08/15 04:15:22;;;;;;;17.05;12.02;;;18.00;99.90;;;;;;4998782;28;20070;-77
2023/08/15 04:17:48;;;;;;;18.23;11.70;;;18.00;99.90;;;;;;4991853;28;20061;-76
2023/08/15 04:20:13;;;;;;;18.20;11.45;;;18.00;99.90;;;;;;4997718;28;20048;-77
2023/08/15 04:22:39;;;;;;;18.42;12.18;;;18.00;99.90;;;;;;4971995;28;20712;-77
2023/08/15 04:25:07;;;;;;;15.77;10.98;;;18.00;99.90;;;;;;4966444;28;20046;-77
2023/08/15 04:27:33;;;;;;;15.93;11.63;;;18.00;99.90;;;;;;4973811;28;20731;-77
2023/08/15 04:29:58;;;;;;;16.25;12.32;;;17.90;99.90;;;;;;4968610;28;20061;-77
2023/08/15 04:32:24;;;;;;;17.38;11.38;;;17.90;99.90;;;;;;4987041;28;20053;-77
2023/08/15 04:34:50;;;;;;;17.98;10.75;;;17.90;99.90;;;;;;4986659;28;20101;-77
2023/08/15 04:37:15;;;;;;;14.70;11.52;;;17.90;99.90;;;;;;4986746;28;20057;-77
2023/08/15 04:39:41;;;;;;;15.73;11.40;;;18.00;99.90;;;;;;5003565;28;20084;-78
2023/08/15 04:42:07;;;;;;;16.42;11.70;;;17.90;99.90;;;;;;4974061;28;20500;-77
2023/08/15 04:44:32;;;;;;;17.13;11.35;;;18.00;99.90;;;;;;5001848;28;20082;-77
2023/08/15 04:46:58;;;;;;;17.13;12.32;;;18.00;99.90;;;;;;4971825;28;20507;-77
2023/08/15 04:49:23;;;;;;;18.20;11.07;;;18.10;99.90;;;;;;5003133;28;20045;-77
2023/08/15 04:51:49;;;;;;;19.33;11.57;;;18.10;99.90;;;;;;4972862;28;20044;-77
2023/08/15 04:54:15;;;;;;;16.27;11.32;;;18.10;99.90;;;;;;4984339;28;20062;-77
2023/08/15 04:56:40;;;;;;;16.42;11.68;;;18.20;99.90;;;;;;4970102;28;20046;-77
2023/08/15 04:59:06;;;;;;;18.50;11.40;;;18.20;99.90;;;;;;4969685;28;20035;-76
2023/08/15 05:01:31;;;;;;;19.15;11.20;;;18.30;99.90;;;;;;4966102;28;20038;-76
2023/08/15 05:03:57;;;;;;;18.80;10.88;;;18.30;99.90;;;;;;4995245;28;20038;-77
2023/08/15 05:06:22;;;;;;;18.85;10.60;;;18.30;99.90;;;;;;4983381;28;20040;-76
2023/08/15 05:08:48;;;;;;;15.82;11.32;;;18.40;99.90;;;;;;4964899;28;20419;-77
2023/08/15 05:11:14;;;;;;;17.65;10.68;;;18.30;99.90;;;;;;4980769;28;20549;-76
2023/08/15 05:13:39;;;;;;;15.05;9.85;;;18.30;99.90;;;;;;4978199;28;20046;-77
2023/08/15 05:16:05;;;;;;;14.40;9.80;;;18.30;99.90;;;;;;4980239;28;20142;-77
2023/08/15 05:18:30;;;;;;;16.25;10.30;;;18.30;99.90;;;;;;4980709;28;20043;-77
2023/08/15 05:20:56;;;;;;;16.38;10.80;;;18.30;99.90;;;;;;4967099;28;21866;-77
2023/08/15 05:23:22;;;;;;;15.82;10.18;;;18.40;99.90;;;;;;4965293;28;20060;-77
2023/08/15 05:25:47;;;;;;;17.73;10.48;;;18.40;99.90;;;;;;4979965;28;20133;-76
2023/08/15 05:28:13;;;;;;;12.82;8.82;;;18.40;99.90;;;;;;4967998;28;20512;-76
2023/08/15 05:30:39;;;;;;;14.02;9.45;;;18.40;99.90;;;;;;4982841;28;20058;-77
2023/08/15 05:33:05;;;;;;;14.85;8.55;;;18.50;99.90;;;;;;4978163;28;20049;-77
2023/08/15 05:35:31;;;;;;;11.27;8.02;;;18.50;99.90;;;;;;4978410;28;20038;-77
2023/08/15 05:37:57;;;;;;;15.38;8.20;;;18.50;99.90;;;;;;4979632;28;20042;-77
2023/08/15 05:40:22;;;;;;;12.70;8.18;;;18.50;99.90;;;;;;4977755;28;20047;-76
2023/08/15 05:42:48;;;;;;;11.95;7.55;;;18.60;99.90;;;;;;4992103;28;20394;-77
2023/08/15 05:45:14;;;;;;;10.43;7.35;;;18.60;99.90;;;;;;4983062;28;20120;-77
2023/08/15 05:47:40;;;;;;;10.95;6.55;;;18.50;99.90;;;;;;4981239;28;20129;-77
2023/08/15 05:50:06;;;;;;;13.13;6.93;;;18.50;99.90;;;;;;4999305;28;20403;-78
2023/08/15 05:52:31;;;;;;;8.15;6.07;;;18.50;99.90;;;;;;4983296;28;20038;-77
2023/08/15 05:54:57;;;;;;;12.77;6.85;;;18.50;99.90;;;;;;4984130;28;20419;-77
2023/08/15 05:57:23;;;;;;;12.85;6.57;;;18.50;99.90;;;;;;4980473;28;20034;-78
2023/08/15 05:59:49;;;;;;;10.30;6.47;;;18.40;99.90;;;;;;4984088;28;20125;-78
2023/08/15 06:02:15;;;;;;;10.57;6.20;;;18.40;99.90;;;;;;4983593;28;20124;-78
2023/08/15 06:04:41;;;;;;;11.10;5.90;;;18.30;99.90;;;;;;4982698;28;20041;-78
2023/08/15 06:07:07;;;;;;;12.35;6.75;;;18.20;99.90;;;;;;4986479;28;20096;-77
2023/08/15 06:09:33;;;;;;;12.00;6.45;;;18.10;99.90;;;;;;4987698;28;20077;-77
2023/08/15 06:11:58;;;;;;;8.93;6.40;;;18.10;99.90;;;;;;4983447;28;20042;-78
2023/08/15 06:14:24;;;;;;;7.93;5.60;;;18.10;99.90;;;;;;4988203;28;20042;-77
2023/08/15 06:16:50;;;;;;;8.73;5.47;;;18.10;99.90;;;;;;5002171;28;20425;-78
2023/08/15 06:19:16;;;;;;;10.10;5.65;;;18.10;99.90;;;;;;4962791;28;20030;-78
2023/08/15 06:21:42;;;;;;;9.45;5.20;;;18.20;99.90;;;;;;4985870;28;20127;-77
2023/08/15 06:24:12;;;;;;;7.07;4.70;;;18.30;99.90;;;;;;4987948;28;20512;-78
2023/08/15 06:26:38;;;;;;;7.47;4.50;;;18.40;99.90;;;;;;4986102;28;20073;-77
2023/08/15 06:29:07;;;;;;;7.63;4.70;;;18.50;99.90;;;;;;5000719;28;20062;-76
2023/08/15 06:31:34;;;;;;;9.32;3.72;;;18.50;99.70;;;;;;4974209;28;20109;-77
2023/08/15 06:34:01;;;;;;;13.25;4.05;;;18.60;99.90;;;;;;4973756;28;20046;-78
2023/08/15 06:36:26;;;;;;;5.22;3.58;;;18.70;99.90;;;;;;4979879;28;20605;-77
2023/08/15 06:38:52;;;;;;;8.75;4.07;;;18.80;99.90;;;;;;4997501;28;20034;-73
2023/08/15 06:41:18;;;;;;;9.50;3.72;;;18.90;99.90;;;;;;4992466;28;20607;-73
2023/08/15 06:43:44;;;;;;;9.57;3.90;;;18.90;99.90;;;;;;4994041;28;20133;-74
2023/08/15 06:46:11;;;;;;;10.07;3.28;;;19.00;99.90;;;;;;4981461;28;20141;-74
2023/08/15 06:48:37;;;;;;;4.95;3.05;;;19.10;95.00;;;;;;4992593;28;20101;-74
2023/08/15 06:51:03;;;;;;;6.82;3.30;;;19.10;74.30;;;;;;4962458;28;20064;-71
2023/08/15 06:53:30;;;;;;;4.70;2.38;;;19.10;74.00;;;;;;4986881;28;20037;-73
2023/08/15 06:55:55;;;;;;;6.00;3.35;;;19.10;67.30;;;;;;4983621;28;20092;-74
2023/08/15 06:58:21;;;;;;;9.40;2.95;;;19.10;55.70;;;;;;4963910;28;20066;-73
2023/08/15 07:00:47;;;;;;;11.35;3.28;;;19.00;41.60;;;;;;4983689;28;20038;-73
2023/08/15 07:03:16;;;;;;;9.18;2.95;;;19.00;42.70;;;;;;4999167;28;20057;-73
2023/08/15 07:05:42;;;;;;;4.28;2.72;;;19.00;32.80;;;;;;4977719;28;20057;-74
2023/08/15 07:08:08;;;;;;;8.43;2.92;;;19.10;30.70;;;;;;4996524;28;20497;-75
2023/08/15 07:10:36;;;;;;;6.32;2.95;;;19.10;15.10;;;;;;4996423;28;20046;-74
2023/08/15 07:13:02;;;;;;;4.55;2.67;;;19.20;13.10;;;;;;4996129;28;20035;-75
2023/08/15 07:15:28;;;;;;;7.75;2.67;;;19.20;31.00;;;;;;4978866;28;20500;-75
2023/08/15 07:17:54;;;;;;;5.60;2.45;;;19.30;23.40;;;;;;4984709;28;20105;-74
2023/08/15 07:20:20;;;;;;;5.68;2.50;;;19.40;21.40;;;;;;4977623;28;20030;-74
2023/08/15 07:22:46;;;;;;;4.80;2.67;;;19.50;20.50;;;;;;4982730;28;20049;-74
2023/08/15 07:25:12;;;;;;;8.27;2.38;;;19.50;21.60;;;;;;4981976;28;20038;-74
2023/08/15 07:27:38;;;;;;;9.30;2.47;;;19.60;16.00;;;;;;4981792;28;20065;-74
2023/08/15 07:30:05;;;;;;;8.80;2.60;;;19.70;14.50;;;;;;4988753;28;20066;-75
2023/08/15 07:32:34;;;;;;;7.60;2.17;;;19.80;1.00;;;;;;4997860;28;20041;-75
2023/08/15 07:35:00;;;;;;;5.05;2.78;;;20.00;1.00;;;;;;4986265;28;20863;-74
2023/08/15 07:37:26;;;;;;;7.07;2.05;;;20.10;1.00;;;;;;5001744;28;20088;-75
2023/08/15 07:40:05;;;;;;;5.40;1.60;;;20.20;1.00;;;;;;4984564;28;20125;-74
2023/08/15 07:42:31;;;;;;;5.25;2.15;;;20.30;1.00;;;;;;5000934;28;20041;-74
2023/08/15 07:44:58;;;;;;;6.30;2.40;;;20.40;1.00;;;;;;4983605;28;20035;-74
2023/08/15 07:47:24;;;;;;;3.65;1.90;;;20.40;1.00;;;;;;4969385;28;20034;-75
2023/08/15 07:49:50;;;;;;;3.85;1.85;;;20.30;1.00;;;;;;4983601;28;20489;-77
2023/08/15 07:52:15;;;;;;;5.13;1.63;;;20.30;1.00;;;;;;4988401;28;20089;-78
2023/08/15 07:54:43;;;;;;;6.30;2.15;;;20.40;1.00;;;;;;5000097;28;20559;-78
2023/08/15 07:57:09;;;;;;;4.55;1.50;;;20.50;99.90;;;;;;4971827;28;20039;-78
2023/08/15 07:59:35;;;;;;;4.68;1.90;;;20.70;99.90;;;;;;5000043;28;20547;-78
2023/08/15 08:02:00;;;;;;;4.40;1.67;;;21.00;99.90;;;;;;4993857;28;20038;-78
2023/08/15 08:04:26;;;;;;;7.47;2.08;;;21.40;99.90;;;;;;4985775;28;20085;-77
2023/08/15 08:06:51;;;;;;;4.05;1.40;;;21.80;99.90;;;;;;4974050;28;20078;-78
2023/08/15 08:09:17;;;;;;;2.53;1.38;;;22.00;99.90;;;;;;4987575;28;20038;-78
2023/08/15 08:11:44;;;;;;;5.10;1.55;;;22.10;99.90;;;;;;4989846;28;20046;-78
2023/08/15 08:14:10;;;;;;;4.03;1.67;;;22.30;99.90;;;;;;4989560;28;20206;-78
2023/08/15 08:16:35;;;;;;;3.75;1.83;;;22.40;1.00;;;;;;4973529;28;20125;-78
2023/08/15 08:19:01;;;;;;;4.80;1.33;;;22.40;1.00;;;;;;4975493;28;20066;-78
2023/08/15 08:21:26;;;;;;;6.03;1.58;;;22.20;1.00;;;;;;4982912;28;20050;-78
2023/08/15 08:23:52;;;;;;;4.55;1.52;;;21.90;1.00;;;;;;4980014;28;20046;-78
2023/08/15 08:26:18;;;;;;;5.05;1.40;;;21.70;1.00;;;;;;4991957;28;20124;-78
2023/08/15 08:28:43;;;;;;;3.42;1.25;;;21.50;5.90;;;;;;4979515;28;20145;-78
2023/08/15 08:31:09;;;;;;;4.30;1.60;;;21.50;14.40;;;;;;4982164;28;20064;-78
2023/08/15 08:33:34;;;;;;;3.83;1.83;;;21.40;1.00;;;;;;4986381;28;20101;-78
2023/08/15 08:36:00;;;;;;;6.72;1.30;;;21.40;1.00;;;;;;4995912;28;20660;-78
2023/08/15 08:38:26;;;;;;;4.93;1.63;;;21.30;1.00;;;;;;4974328;28;20038;-78
2023/08/15 08:40:55;;;;;;;3.47;1.30;;;21.40;1.00;;;;;;4995977;28;20125;-76
2023/08/15 08:43:20;;;;;;;5.63;1.15;;;21.50;1.00;;;;;;4973490;28;20084;-78
2023/08/15 08:45:53;;;;;;;2.97;1.00;;;21.80;1.00;;;;;;4996378;28;20046;-79
2023/08/15 08:48:21;;;;;;;5.13;1.67;;;22.10;99.90;;;;;;4971689;28;20077;-77
2023/08/15 08:50:48;;;;;;;3.78;1.40;;;22.20;99.90;;;;;;4965323;28;20046;-77
2023/08/15 08:53:14;;;;;;;4.32;1.27;;;22.40;99.90;;;;;;4972751;28;20038;-76
2023/08/15 08:55:40;;;;;;;3.20;1.33;;;22.50;99.90;;;;;;4980611;28;20108;-77
2023/08/15 08:58:10;;;;;;;6.32;1.10;;;22.40;99.90;;;;;;4971405;28;20405;-77
2023/08/15 09:00:36;;;;;;;4.55;1.13;;;22.30;99.90;;;;;;4998885;28;20077;-77
2023/08/15 09:03:01;;;;;;;2.88;0.90;;;22.20;99.90;;;;;;4980433;28;20042;-77
2023/08/15 09:05:27;;;;;;;2.90;1.10;;;22.50;99.90;;;;;;4981149;28;20711;-76
2023/08/15 09:07:53;;;;;;;2.33;0.80;;;23.40;99.90;;;;;;4999910;28;20125;-76
2023/08/15 09:10:21;;;;;;;3.03;0.85;;;24.20;99.90;;;;;;4970689;28;20417;-77
2023/08/15 09:12:47;;;;;;;1.27;0.77;;;25.10;57.60;;;;;;5004819;28;20034;-78
2023/08/15 09:15:13;;;;;;;2.50;0.93;;;25.50;54.60;;;;;;4976803;28;20104;-77
2023/08/15 09:17:39;;;;;;;2.13;0.70;;;25.80;1.00;;;;;;4987165;28;20073;-77
2023/08/15 09:20:16;;;;;;;2.45;0.82;;;26.30;1.00;;;;;;4976756;28;20050;-78
2023/08/15 09:22:45;;;;;;;2.25;0.70;;;27.20;1.00;;;;;;4986431;28;20043;-77
2023/08/15 09:25:12;;;;;;;2.22;0.95;;;28.00;1.00;;;;;;4999107;28;20512;-78
2023/08/15 09:27:39;;;;;;;3.65;1.20;;;28.10;1.00;;;;;;4986115;28;20035;-77
2023/08/15 09:30:15;;;;;;;1.73;0.90;;;28.40;1.00;;;;;;4986815;28;20057;-77
2023/08/15 09:32:42;;;;;;;3.13;0.90;;;28.40;1.00;;;;;;5004741;28;20042;-77
2023/08/15 09:35:09;;;;;;;4.63;1.23;;;28.20;1.00;;;;;;4988493;28;20547;-77
2023/08/15 09:37:40;;;;;;;3.55;1.13;;;27.60;1.00;;;;;;5004700;28;20162;-77
2023/08/15 09:40:08;;;;;;;3.92;1.23;;;27.20;1.00;;;;;;4984711;28;20042;-77
2023/08/15 09:42:35;;;;;;;3.33;1.33;;;26.60;1.00;;;;;;4987186;28;20057;-76
2023/08/15 09:45:02;;;;;;;2.28;0.88;;;26.00;1.00;;;;;;4992451;28;20038;-77
2023/08/15 09:47:28;;;;;;;3.97;1.17;;;25.70;1.00;;;;;;4996622;28;20042;-76
2023/08/15 09:49:55;;;;;;;4.10;1.00;;;25.30;1.00;;;;;;4960300;28;20053;-77
2023/08/15 09:52:22;;;;;;;3.08;1.00;;;25.40;1.00;;;;;;4976134;28;20045;-77
2023/08/15 09:54:48;;;;;;;2.40;1.10;;;26.80;1.00;;;;;;4980144;28;20042;-77
2023/08/15 09:57:14;;;;;;;2.85;1.00;;;27.90;1.00;;;;;;5003887;28;20045;-77
2023/08/15 09:59:40;;;;;;;2.72;1.00;;;27.30;1.00;;;;;;4983334;28;20034;-77
2023/08/15 10:02:23;;;;;;;2.92;0.95;;;26.30;1.00;;;;;;4979917;28;20039;-77
2023/08/15 10:05:00;;;;;;;2.72;0.90;;;25.70;1.00;;;;;;4968718;28;20047;-77
2023/08/15 10:07:30;;;;;;;3.95;1.15;;;25.40;1.00;;;;;;4996345;28;20053;-77
2023/08/15 10:09:57;;;;;;;3.00;1.05;;;25.70;1.00;;;;;;4985240;28;20486;-76
2023/08/15 10:12:25;;;;;;;2.85;1.10;;;25.70;1.00;;;;;;4985631;28;20060;-77
2023/08/15 10:14:53;;;;;;;4.70;1.05;;;25.90;1.00;;;;;;4984994;28;20050;-77
2023/08/15 10:17:19;;;;;;;1.55;0.95;;;26.00;1.00;;;;;;4968505;28;20070;-77
2023/08/15 10:19:48;;;;;;;3.40;0.90;;;26.10;1.00;;;;;;4985020;28;20100;-76
2023/08/15 10:22:21;;;;;;;3.13;1.08;;;25.90;1.00;;;;;;4984762;28;20043;-77
2023/08/15 10:24:48;;;;;;;5.63;1.85;;;25.60;1.00;;;;;;4979578;28;20081;-77
2023/08/15 10:27:14;;;;;;;3.33;1.27;;;25.50;1.00;;;;;;4990364;28;20058;-77
2023/08/15 10:29:56;;;;;;;3.88;1.48;;;26.20;1.00;;;;;;4986689;28;20661;-76
2023/08/15 10:32:26;;;;;;;3.30;1.38;;;27.00;1.00;;;;;;4974507;28;20535;-77
2023/08/15 10:34:53;;;;;;;2.03;1.50;;;27.90;1.00;;;;;;4975787;28;20616;-77
2023/08/15 10:37:30;;;;;;;3.78;1.85;;;28.70;1.00;;;;;;4991393;28;20053;-77
2023/08/15 10:40:37;;;;;;;2.72;1.35;;;29.10;1.00;;;;;;4972714;28;20043;-77
2023/08/15 10:43:09;;;;;;;2.15;1.30;;;29.50;1.00;;;;;;4968141;28;20145;-77
2023/08/15 10:45:36;;;;;;;2.65;1.30;;;29.50;1.00;;;;;;4967768;28;20050;-77
2023/08/15 10:48:02;;;;;;;2.85;1.35;;;29.70;1.00;;;;;;4997508;28;20409;-77
2023/08/15 10:50:28;;;;;;;3.55;1.17;;;30.30;1.00;;;;;;4984399;28;20046;-77
2023/08/15 10:53:02;;;;;;;2.95;1.13;;;30.40;1.00;;;;;;4980626;28;20053;-77
2023/08/15 10:55:30;;;;;;;6.32;1.60;;;30.70;1.00;;;;;;4993475;28;20038;-76
2023/08/15 10:57:56;;;;;;;2.70;1.30;;;30.60;1.00;;;;;;4967166;28;20034;-77
2023/08/15 11:00:23;;;;;;;2.75;1.30;;;30.20;1.00;;;;;;4993352;28;20045;-77
2023/08/15 11:02:49;;;;;;;2.50;1.38;;;29.50;1.00;;;;;;4989834;28;20390;-76
2023/08/15 11:05:40;;;;;;;4.18;1.35;;;28.70;1.00;;;;;;4986864;28;20066;-76
2023/08/15 11:08:18;;;;;;;6.32;1.20;;;28.20;1.00;;;;;;4967308;28;20031;-76
2023/08/15 11:10:48;;;;;;;3.97;1.83;;;27.50;1.00;;;;;;4998589;28;20042;-76
2023/08/15 11:13:18;;;;;;;1.60;1.00;;;26.80;1.00;;;;;;4986794;28;20520;-76
2023/08/15 11:15:44;;;;;;;2.95;1.30;;;26.10;1.00;;;;;;4989953;28;20042;-76
2023/08/15 11:18:11;;;;;;;3.28;1.00;;;25.90;1.00;;;;;;5003181;28;20138;-76
2023/08/15 11:20:37;;;;;;;2.58;1.00;;;26.40;1.00;;;;;;4992398;28;20045;-76
2023/08/15 11:23:03;;;;;;;4.07;1.02;;;26.80;1.00;;;;;;4979268;28;20038;-76
2023/08/15 11:25:29;;;;;;;2.33;1.10;;;27.10;1.00;;;;;;4983570;28;20045;-76
2023/08/15 11:27:54;;;;;;;2.65;0.95;;;28.40;1.00;;;;;;4979324;28;20054;-76
2023/08/15 11:30:20;;;;;;;2.10;0.80;;;29.90;1.00;;;;;;4999202;28;20046;-76
2023/08/15 11:32:46;;;;;;;4.25;0.80;;;31.60;1.00;;;;;;4986424;28;20532;-77
2023/08/15 11:35:12;;;;;;;2.53;0.90;;;32.60;1.00;;;;;;5001628;28;20088;-76
2023/08/15 11:37:40;;;;;;;3.00;0.93;;;31.90;1.00;;;;;;4989790;28;20039;-76
2023/08/15 11:40:06;;;;;;;2.22;0.90;;;30.80;1.00;;;;;;4967226;28;20046;-76
2023/08/15 11:42:34;;;;;;;2.03;1.08;;;29.60;1.00;;;;;;4980664;28;20050;-76
2023/08/15 11:45:06;;;;;;;4.78;1.02;;;29.40;1.00;;;;;;4987587;28;20034;-76
2023/08/15 11:47:32;;;;;;;1.52;0.80;;;29.40;1.00;;;;;;4998203;28;20046;-76
2023/08/15 11:49:57;;;;;;;3.55;0.80;;;28.80;1.00;;;;;;4990107;28;20547;-76
2023/08/15 11:52:23;;;;;;;2.60;0.80;;;29.10;1.00;;;;;;4972084;28;20049;-77
2023/08/15 11:54:49;;;;;;;3.22;1.00;;;29.90;1.00;;;;;;5001952;28;20049;-77
2023/08/15 11:57:32;;;;;;;2.60;1.08;;;29.90;1.00;;;;;;4994625;28;20761;-75
2023/08/15 11:59:57;;;;;;;4.07;1.08;;;29.00;1.00;;;;;;4988348;28;21239;-76
2023/08/15 12:02:23;;;;;;;1.73;1.05;;;28.00;1.00;;;;;;4994056;28;20129;-77
2023/08/15 12:04:49;;;;;;;2.65;1.20;;;27.10;1.00;;;;;;4999311;28;20062;-76
2023/08/15 12:07:14;;;;;;;3.20;1.10;;;26.20;1.00;;;;;;4978617;28;20081;-76
2023/08/15 12:09:40;;;;;;;4.68;1.35;;;25.40;1.00;;;;;;5005371;28;20112;-76
2023/08/15 12:12:06;;;;;;;3.15;1.08;;;25.10;1.00;;;;;;5003608;28;20096;-76
2023/08/15 12:14:32;;;;;;;3.17;1.05;;;25.30;1.00;;;;;;5003702;28;20081;-76
2023/08/15 12:16:57;;;;;;;3.33;1.13;;;25.60;1.00;;;;;;4988473;28;21760;-77
2023/08/15 12:19:23;;;;;;;4.28;1.08;;;26.30;1.00;;;;;;4988970;28;20038;-76
2023/08/15 12:21:49;;;;;;;2.97;1.02;;;26.90;1.00;;;;;;5004250;28;20092;-76
2023/08/15 12:24:15;;;;;;;2.45;1.10;;;28.30;1.00;;;;;;4989663;28;20407;-76
2023/08/15 12:26:41;;;;;;;2.53;1.08;;;29.60;1.00;;;;;;4975525;28;20126;-76
2023/08/15 12:29:06;;;;;;;2.17;1.33;;;30.80;1.00;;;;;;4993598;28;20133;-77
2023/08/15 12:31:32;;;;;;;2.97;1.00;;;30.50;1.00;;;;;;4973518;28;20474;-76
2023/08/15 12:33:57;;;;;;;2.50;0.98;;;30.00;1.00;;;;;;4988355;28;20096;-76
2023/08/15 12:36:23;;;;;;;3.05;1.42;;;29.30;1.00;;;;;;5005411;28;20093;-76
2023/08/15 12:38:49;;;;;;;3.05;1.20;;;28.50;1.00;;;;;;5005755;28;20109;-76
2023/08/15 12:41:14;;;;;;;2.55;1.42;;;28.30;1.00;;;;;;4977930;28;20039;-75
2023/08/15 12:43:40;;;;;;;2.50;0.98;;;28.50;1.00;;;;;;4992562;28;20042;-76